El Palomar, Argentina

6:57 AM ART on February 07, 2016 (GMT -0300)
Villa Ballester | | Change Station
CLOSE
Current Station
Personal Weather Station
Location: Villa Ballester, BUENOS AIRES
Elevation: 102 ft
Nearby Weather Stations

Elev 102 ft 34.56 °S, 58.56 °W | Updated 9 seconds ago

Clear
Clear
75.7 °F
Feels Like 77 °F
N
5.4
Wind Variable Wind from NE
Gusts 7.6 mph

Today
High -- | Low -- °F
--% Chance of Precip.
Yesterday
High -- | Low -- °F
Precip. -- in
Pressure 29.89 in
Visibility -9999.0 miles
Clouds
Heat Index 77 °F
Dew Point 65 °F
Humidity 70%
Rainfall 0.00 in
Snow Depth Not available.
6:20 AM 7:56 PM
Waning Crescent, 2% visible
METAR SADF 070900Z 36007KT 270V080 CAVOK 24/19 Q1012
Pressure 29.89 in
Visibility -9999.0 miles
Clouds
Heat Index 77 °F
Dew Point 65 °F
Humidity 70%
Rainfall 0.00 in
Snow Depth Not available.
6:20 AM 7:56 PM
Waning Crescent, 2% visible
METAR SADF 070900Z 36007KT 270V080 CAVOK 24/19 Q1012

10-Day Weather Forecast

No radar image for this location.
×

Almanac

Astronomy

Feb. 07, 2016 Rise Set
Actual Time
Civil Twilight
Nautical Twilight
Astronomical Twilight
Moon
Length of Visible Light
Length of Day
Tomorrow will be .
, % of the Moon is Illuminated

Today's Extremes

Country Highs Country Lows

Community

WunderPhotos

Upload Photos

1,891,171 photos uploaded!

WunderBlog® & News

Nearby

Air Quality

  Air Quality AQ Index Pollutant
Not available.

Snow Depth

Station Depth Elevation

Earthquake Activity

City Distance Mag. Time & Date
Minimum magnitude displayed is 2.5.

Coastal Water Temperatures

Place Temperature

Stations

Nearby Weather Stations

Station Location Temp. Windchill Dew Point Humidity Wind Precip. Elev Updated Type